createdAt,value
2023-04-28T00:02:48.698Z,11.70
2023-04-28T00:05:53.344Z,12.43
2023-04-28T00:08:55.683Z,14.75
2023-04-28T00:11:58.543Z,13.17
2023-04-28T00:15:01.043Z,12.07
2023-04-28T00:18:03.843Z,10.77
2023-04-28T00:21:06.529Z,13.43
2023-04-28T00:24:09.177Z,10.48
2023-04-28T00:27:11.644Z,11.30
2023-04-28T00:30:14.432Z,11.38
2023-04-28T00:33:16.858Z,11.93
2023-04-28T00:36:19.528Z,12.25
2023-04-28T00:39:23.309Z,11.63
2023-04-28T00:42:25.916Z,11.77
2023-04-28T00:45:28.430Z,13.50
2023-04-28T00:48:31.308Z,12.68
2023-04-28T00:51:33.945Z,12.90
2023-04-28T00:54:36.938Z,10.85
2023-04-28T00:57:39.379Z,10.93
2023-04-28T01:00:41.969Z,13.93
2023-04-28T01:03:44.551Z,9.77
2023-04-28T01:06:48.635Z,9.45
2023-04-28T01:09:51.303Z,10.60
2023-04-28T01:12:54.063Z,11.30
2023-04-28T01:15:57.089Z,8.50
2023-04-28T01:19:00.707Z,9.27
2023-04-28T01:22:03.139Z,10.65
2023-04-28T01:25:06.106Z,13.05
2023-04-28T01:28:09.826Z,9.43
2023-04-28T01:31:12.568Z,9.00
2023-04-28T01:34:15.070Z,10.80
2023-04-28T01:37:17.905Z,9.40
2023-04-28T01:40:20.578Z,10.35
2023-04-28T01:43:23.190Z,13.53
2023-04-28T01:46:25.639Z,9.38
2023-04-28T01:49:28.427Z,10.85
2023-04-28T01:52:30.895Z,15.68
2023-04-28T01:55:33.596Z,12.20
2023-04-28T01:58:36.350Z,10.87
2023-04-28T02:01:40.343Z,10.95
2023-04-28T02:04:43.159Z,9.18
2023-04-28T02:07:45.463Z,13.10
2023-04-28T02:10:48.069Z,14.30
2023-04-28T02:13:50.827Z,13.10
2023-04-28T02:16:53.558Z,11.05
2023-04-28T02:19:56.871Z,10.68
2023-04-28T02:22:59.464Z,11.52
2023-04-28T02:26:03.652Z,16.95
2023-04-28T02:29:06.370Z,10.70
2023-04-28T02:32:08.868Z,12.05
2023-04-28T02:35:11.521Z,14.45
2023-04-28T02:38:14.026Z,11.90
2023-04-28T02:41:16.844Z,13.68
2023-04-28T02:44:20.482Z,13.00
2023-04-28T02:47:23.168Z,16.85
2023-04-28T02:50:25.562Z,12.23
2023-04-28T02:53:28.638Z,12.55
2023-04-28T02:56:31.586Z,13.50
2023-04-28T02:59:35.480Z,14.13
2023-04-28T03:02:37.991Z,12.27
2023-04-28T03:05:40.822Z,12.23
2023-04-28T03:08:43.135Z,11.07
2023-04-28T03:11:45.941Z,15.55
2023-04-28T03:14:48.275Z,11.33
2023-04-28T03:17:53.797Z,13.57
2023-04-28T03:20:56.256Z,16.33
2023-04-28T03:24:01.693Z,12.68
2023-04-28T03:27:05.879Z,13.35
2023-04-28T03:30:10.403Z,13.47
2023-04-28T03:33:13.018Z,12.25
2023-04-28T03:36:16.013Z,12.85
2023-04-28T03:39:18.493Z,11.93
2023-04-28T03:42:21.154Z,13.00
2023-04-28T03:45:25.021Z,13.17
2023-04-28T03:48:27.898Z,15.25
2023-04-28T03:51:31.935Z,13.40
2023-04-28T03:54:36.234Z,13.55
2023-04-28T03:57:38.820Z,14.65
2023-04-28T04:00:41.468Z,15.67
2023-04-28T04:03:44.479Z,13.10
2023-04-28T04:06:47.525Z,15.52
2023-04-28T04:09:50.256Z,12.93
2023-04-28T04:12:52.669Z,12.27
2023-04-28T04:15:56.006Z,12.17
2023-04-28T04:18:58.981Z,10.48
2023-04-28T04:22:01.986Z,11.57
2023-04-28T04:25:04.765Z,11.93
2023-04-28T04:28:08.408Z,10.77
2023-04-28T04:31:10.789Z,13.87
2023-04-28T04:34:13.521Z,13.98
2023-04-28T04:37:17.615Z,13.30
2023-04-28T04:40:20.696Z,13.70
2023-04-28T04:43:24.195Z,11.90
2023-04-28T04:46:27.707Z,13.93
2023-04-28T04:49:30.284Z,12.55
2023-04-28T04:52:33.421Z,13.43
2023-04-28T04:55:35.908Z,13.80
2023-04-28T04:58:38.764Z,19.12
2023-04-28T05:01:43.023Z,13.57
2023-04-28T05:04:45.836Z,15.57
2023-04-28T05:07:49.425Z,15.45
2023-04-28T05:10:52.199Z,18.52
2023-04-28T05:13:55.113Z,16.15
2023-04-28T05:16:58.642Z,18.70
2023-04-28T05:20:01.168Z,12.82
2023-04-28T05:23:04.809Z,12.82
2023-04-28T05:26:07.568Z,11.25
2023-04-28T05:29:11.074Z,13.77
2023-04-28T05:32:13.669Z,12.30
2023-04-28T05:35:17.669Z,12.20
2023-04-28T05:38:21.486Z,12.43
2023-04-28T05:41:26.254Z,15.55
2023-04-28T05:44:28.637Z,15.00
2023-04-28T05:47:33.558Z,12.80
2023-04-28T05:50:37.725Z,13.38
2023-04-28T05:53:41.868Z,19.70
2023-04-28T05:56:44.262Z,15.57
2023-04-28T05:59:47.188Z,12.75
2023-04-28T06:02:50.058Z,15.23
2023-04-28T06:05:53.033Z,13.70
2023-04-28T06:08:55.520Z,15.75
2023-04-28T06:11:58.312Z,19.00
2023-04-28T06:15:01.128Z,17.80
2023-04-28T06:18:06.163Z,15.87
2023-04-28T06:21:08.563Z,19.27
2023-04-28T06:24:11.459Z,13.57
2023-04-28T06:27:14.339Z,14.05
2023-04-28T06:30:22.393Z,14.25
2023-04-28T06:33:24.768Z,16.07
2023-04-28T06:36:28.297Z,13.73
2023-04-28T06:39:30.839Z,15.88
2023-04-28T06:42:33.960Z,14.32
2023-04-28T06:45:37.089Z,16.52
2023-04-28T06:48:39.754Z,13.90
2023-04-28T06:51:42.192Z,13.82
2023-04-28T06:54:44.810Z,13.90
2023-04-28T06:57:47.434Z,18.75
2023-04-28T07:00:50.696Z,15.40
2023-04-28T07:03:53.169Z,18.03
2023-04-28T07:06:55.969Z,13.88
2023-04-28T07:09:59.112Z,15.98
2023-04-28T07:13:01.849Z,14.90
2023-04-28T07:16:04.553Z,17.90
2023-04-28T07:19:07.254Z,20.50
2023-04-28T07:22:09.603Z,17.05
2023-04-28T07:25:12.259Z,15.13
2023-04-28T07:28:14.761Z,22.13
2023-04-28T07:31:17.891Z,20.05
2023-04-28T07:34:20.935Z,16.73
2023-04-28T07:37:23.805Z,15.80
2023-04-28T07:40:26.137Z,24.05
2023-04-28T07:43:28.732Z,20.45
2023-04-28T07:46:31.391Z,15.40
2023-04-28T07:49:34.108Z,20.07
2023-04-28T07:52:36.423Z,19.80
2023-04-28T07:55:41.929Z,18.10
2023-04-28T07:58:44.428Z,23.12
2023-04-28T08:01:47.062Z,16.92
2023-04-28T08:04:49.825Z,19.90
2023-04-28T08:07:52.406Z,22.33
2023-04-28T08:10:55.083Z,19.33
2023-04-28T08:14:01.300Z,17.02
2023-04-28T08:17:04.320Z,17.83
2023-04-28T08:20:07.710Z,14.87
2023-04-28T08:23:10.435Z,13.35
2023-04-28T08:26:12.948Z,12.75
2023-04-28T08:29:15.612Z,20.27
2023-04-28T08:32:18.367Z,18.30
2023-04-28T08:35:21.036Z,14.07
2023-04-28T08:38:25.224Z,13.27
2023-04-28T08:41:29.519Z,15.23
2023-04-28T08:44:41.798Z,11.98
2023-04-28T08:47:48.160Z,15.50
2023-04-28T08:50:52.899Z,10.40
2023-04-28T08:54:18.984Z,11.48
2023-04-28T08:57:21.508Z,11.55
2023-04-28T09:00:24.908Z,8.05
2023-04-28T09:03:27.478Z,11.38
2023-04-28T09:06:35.596Z,12.73
2023-04-28T09:09:39.206Z,16.52
2023-04-28T09:12:42.070Z,11.38
2023-04-28T09:15:45.624Z,13.02
2023-04-28T09:18:58.404Z,9.90
2023-04-28T09:22:05.618Z,21.70
2023-04-28T09:25:13.992Z,10.68
2023-04-28T09:28:24.341Z,11.02
2023-04-28T09:31:29.851Z,10.52
2023-04-28T09:34:45.467Z,14.98
2023-04-28T09:37:48.260Z,10.40
2023-04-28T09:40:58.529Z,11.50
2023-04-28T09:44:17.594Z,10.43
2023-04-28T09:47:24.874Z,11.60
2023-04-28T09:50:27.637Z,12.75
2023-04-28T09:53:31.104Z,9.87
2023-04-28T09:56:40.950Z,13.02
2023-04-28T09:59:48.056Z,12.00
2023-04-28T10:02:52.394Z,11.80
2023-04-28T10:05:56.564Z,11.85
2023-04-28T10:09:00.616Z,9.90
2023-04-28T10:12:04.078Z,9.68
2023-04-28T10:15:07.900Z,10.75
2023-04-28T10:18:12.363Z,12.85
2023-04-28T10:21:18.841Z,8.75
2023-04-28T10:24:29.502Z,9.43
2023-04-28T10:27:33.084Z,7.70
2023-04-28T10:30:36.242Z,7.93
2023-04-28T10:33:40.270Z,12.50
2023-04-28T10:36:55.047Z,10.10
2023-04-28T10:40:31.592Z,10.37
2023-04-28T10:43:37.975Z,11.73
2023-04-28T10:47:03.838Z,10.65
2023-04-28T10:50:06.974Z,12.30
2023-04-28T10:53:09.304Z,9.27
2023-04-28T10:56:22.319Z,15.40
2023-04-28T10:59:27.458Z,6.85
2023-04-28T11:02:41.724Z,7.30
2023-04-28T11:06:26.189Z,8.70
2023-04-28T11:09:31.787Z,8.85
2023-04-28T11:12:34.149Z,7.47
2023-04-28T11:15:37.709Z,9.65
2023-04-28T11:18:59.337Z,6.85
2023-04-28T11:22:13.603Z,8.95
2023-04-28T11:25:16.161Z,8.85
2023-04-28T11:28:18.784Z,9.77
2023-04-28T11:31:24.353Z,8.35
2023-04-28T11:34:27.360Z,9.35
2023-04-28T11:37:29.717Z,9.93
2023-04-28T11:40:32.496Z,10.07
2023-04-28T11:43:46.479Z,8.33
2023-04-28T11:46:55.834Z,8.32
2023-04-28T11:49:58.766Z,10.32
2023-04-28T11:53:01.522Z,9.38
2023-04-28T11:56:08.244Z,7.78
2023-04-28T11:59:13.190Z,12.83
2023-04-28T12:02:17.108Z,14.07
2023-04-28T12:05:22.230Z,9.10
2023-04-28T12:08:29.437Z,9.32
2023-04-28T12:11:32.240Z,8.40
2023-04-28T12:14:54.793Z,7.70
2023-04-28T12:18:10.723Z,17.92
2023-04-28T12:21:21.294Z,16.95
2023-04-28T12:24:26.101Z,9.75
2023-04-28T12:27:29.277Z,10.52
2023-04-28T12:30:42.086Z,16.53
2023-04-28T12:33:44.880Z,9.10
2023-04-28T12:36:47.932Z,9.57
2023-04-28T12:39:50.284Z,9.57
2023-04-28T12:42:53.048Z,12.98
2023-04-28T12:45:56.890Z,9.30
2023-04-28T12:48:59.562Z,12.48
2023-04-28T12:52:02.287Z,11.70
2023-04-28T12:55:05.490Z,8.90
2023-04-28T12:58:07.809Z,10.80
2023-04-28T13:01:10.531Z,14.57
2023-04-28T13:04:13.384Z,11.73
2023-04-28T13:07:16.493Z,11.75
2023-04-28T13:10:21.319Z,7.60
2023-04-28T13:13:23.991Z,12.10
2023-04-28T13:16:28.976Z,8.67
2023-04-28T13:19:34.310Z,17.05
2023-04-28T13:22:37.163Z,9.32
2023-04-28T13:25:39.873Z,7.80
2023-04-28T13:28:42.339Z,9.88
2023-04-28T13:31:45.152Z,9.90
2023-04-28T13:34:47.725Z,8.32
2023-04-28T13:37:55.803Z,9.38
2023-04-28T13:40:58.248Z,9.60
2023-04-28T13:44:01.050Z,7.43
2023-04-28T13:47:04.132Z,11.03
2023-04-28T13:50:07.946Z,9.32
2023-04-28T13:53:11.020Z,11.18
2023-04-28T13:56:13.810Z,8.52
2023-04-28T13:59:16.185Z,9.73
2023-04-28T14:02:19.134Z,6.57
2023-04-28T14:05:22.355Z,16.12
2023-04-28T14:08:26.485Z,9.38
2023-04-28T14:11:30.569Z,9.05
2023-04-28T14:14:33.036Z,8.23
2023-04-28T14:17:35.698Z,8.57
2023-04-28T14:20:38.116Z,7.30
2023-04-28T14:23:40.805Z,8.52
2023-04-28T14:26:43.962Z,10.75
2023-04-28T14:29:49.507Z,7.70
2023-04-28T14:32:51.917Z,10.30
2023-04-28T14:35:54.649Z,10.73
2023-04-28T14:38:57.651Z,8.30
2023-04-28T14:42:00.396Z,11.82
2023-04-28T14:45:04.414Z,7.85
2023-04-28T14:48:07.922Z,9.67
2023-04-28T14:51:10.618Z,14.57
2023-04-28T14:54:13.910Z,7.15
2023-04-28T14:57:16.523Z,8.48
2023-04-28T15:00:19.504Z,7.20
2023-04-28T15:03:22.177Z,10.63
2023-04-28T15:06:24.814Z,8.27
2023-04-28T15:09:28.149Z,9.07
2023-04-28T15:12:31.934Z,8.35
2023-04-28T15:15:35.139Z,9.32
2023-04-28T15:18:38.399Z,7.47
2023-04-28T15:21:41.157Z,7.65
2023-04-28T15:24:43.927Z,9.18
2023-04-28T15:27:46.293Z,10.25
2023-04-28T15:30:48.942Z,7.32
2023-04-28T15:33:55.014Z,10.30
2023-04-28T15:36:57.619Z,7.80
2023-04-28T15:40:00.630Z,12.32
2023-04-28T15:43:03.199Z,12.77
2023-04-28T15:46:11.044Z,11.05
2023-04-28T15:49:13.921Z,12.93
2023-04-28T15:52:17.019Z,11.65
2023-04-28T15:55:21.675Z,10.68
2023-04-28T15:58:24.281Z,13.48
2023-04-28T16:01:27.047Z,10.18
2023-04-28T16:04:29.907Z,11.70
2023-04-28T16:07:38.122Z,12.98
2023-04-28T16:10:42.385Z,14.75
2023-04-28T16:13:45.388Z,8.70
2023-04-28T16:16:50.663Z,13.60
2023-04-28T16:19:53.129Z,8.13
2023-04-28T16:22:56.095Z,14.82
2023-04-28T16:25:58.500Z,12.20
2023-04-28T16:29:01.329Z,8.25
2023-04-28T16:32:05.000Z,9.85
2023-04-28T16:35:11.778Z,11.33
2023-04-28T16:38:16.834Z,11.02
2023-04-28T16:41:19.463Z,10.88
2023-04-28T16:44:21.818Z,12.25
2023-04-28T16:47:24.509Z,12.95
2023-04-28T16:50:27.117Z,10.67
2023-04-28T16:53:29.786Z,13.75
2023-04-28T16:56:33.910Z,9.70
2023-04-28T16:59:36.704Z,9.68
2023-04-28T17:02:39.238Z,14.25
2023-04-28T17:05:42.107Z,9.70
2023-04-28T17:08:44.542Z,10.02
2023-04-28T17:11:47.742Z,9.88
2023-04-28T17:14:51.150Z,11.27
2023-04-28T17:17:53.862Z,12.27
2023-04-28T17:20:56.410Z,11.30
2023-04-28T17:23:59.908Z,8.27
2023-04-28T17:27:02.305Z,14.00
2023-04-28T17:30:07.248Z,13.07
2023-04-28T17:33:10.227Z,10.10
2023-04-28T17:36:13.072Z,10.73
2023-04-28T17:39:16.577Z,12.65
2023-04-28T17:42:19.495Z,11.50
2023-04-28T17:45:21.905Z,9.70
2023-04-28T17:48:24.554Z,11.25
2023-04-28T17:51:27.813Z,13.63
2023-04-28T17:54:32.104Z,11.20
2023-04-28T17:57:34.454Z,15.05
2023-04-28T18:00:37.201Z,11.23
2023-04-28T18:03:40.083Z,8.20
2023-04-28T18:06:42.664Z,12.60
2023-04-28T18:09:45.316Z,13.88
2023-04-28T18:12:47.746Z,11.25
2023-04-28T18:15:50.477Z,10.68
2023-04-28T18:18:52.812Z,8.57
2023-04-28T18:21:56.912Z,13.53
2023-04-28T18:24:59.810Z,10.52
2023-04-28T18:28:02.706Z,9.10
2023-04-28T18:31:06.245Z,11.32
2023-04-28T18:34:08.916Z,12.52
2023-04-28T18:37:11.287Z,11.73
2023-04-28T18:40:13.920Z,10.73
2023-04-28T18:43:16.262Z,16.17
2023-04-28T18:46:18.938Z,12.35
2023-04-28T18:49:21.739Z,15.05
2023-04-28T18:52:24.538Z,13.57
2023-04-28T18:55:26.876Z,11.57
2023-04-28T18:58:29.581Z,16.73
2023-04-28T19:01:32.015Z,11.75
2023-04-28T19:04:34.964Z,14.07
2023-04-28T19:07:38.224Z,14.77
2023-04-28T19:10:41.395Z,16.12
2023-04-28T19:13:46.507Z,11.23
2023-04-28T19:16:49.227Z,15.50
2023-04-28T19:19:56.245Z,19.70
2023-04-28T19:23:01.487Z,13.03
2023-04-28T19:26:04.346Z,13.62
2023-04-28T19:29:07.114Z,15.65
2023-04-28T19:32:09.953Z,14.82
2023-04-28T19:35:13.284Z,18.45
2023-04-28T19:38:17.058Z,17.57
2023-04-28T19:41:20.945Z,21.30
2023-04-28T19:44:23.362Z,16.75
2023-04-28T19:47:27.567Z,16.65
2023-04-28T19:50:29.972Z,20.02
2023-04-28T19:53:32.757Z,18.20
2023-04-28T19:56:35.098Z,19.73
2023-04-28T19:59:37.749Z,17.05
2023-04-28T20:02:40.228Z,14.32
2023-04-28T20:05:42.892Z,21.83
2023-04-28T20:08:45.871Z,20.53
2023-04-28T20:11:48.528Z,21.45
2023-04-28T20:14:54.290Z,15.68
2023-04-28T20:17:56.970Z,16.85
2023-04-28T20:20:59.762Z,15.50
2023-04-28T20:24:02.735Z,17.40
2023-04-28T20:27:05.207Z,18.90
2023-04-28T20:30:08.423Z,18.33
2023-04-28T20:33:10.829Z,22.37
2023-04-28T20:36:13.486Z,16.95
2023-04-28T20:39:15.812Z,22.23
2023-04-28T20:42:18.570Z,66.55
2023-04-28T20:45:21.199Z,50.50
2023-04-28T20:48:23.998Z,62.20
2023-04-28T20:51:26.302Z,58.03
2023-04-28T20:54:28.859Z,56.97
2023-04-28T20:57:31.237Z,47.72
2023-04-28T21:00:36.128Z,41.83
2023-04-28T21:03:38.616Z,39.60
2023-04-28T21:06:41.321Z,35.15
2023-04-28T21:09:43.653Z,34.40
2023-04-28T21:12:46.669Z,31.20
2023-04-28T21:15:49.753Z,29.15
2023-04-28T21:18:52.565Z,32.35
2023-04-28T21:21:54.887Z,34.60
2023-04-28T21:24:57.657Z,31.00
2023-04-28T21:28:01.651Z,28.23
2023-04-28T21:31:05.046Z,28.60
2023-04-28T21:34:07.751Z,19.87
2023-04-28T21:37:10.349Z,16.50
2023-04-28T21:40:13.559Z,17.17
2023-04-28T21:43:16.613Z,18.20
2023-04-28T21:46:19.140Z,21.45
2023-04-28T21:49:21.856Z,16.67
2023-04-28T21:52:24.327Z,22.00
2023-04-28T21:55:26.927Z,26.03
2023-04-28T21:58:29.216Z,21.15
2023-04-28T22:01:32.168Z,22.40
2023-04-28T22:04:35.618Z,23.12
2023-04-28T22:07:38.029Z,22.55
2023-04-28T22:10:40.973Z,28.07
2023-04-28T22:13:43.307Z,24.45
2023-04-28T22:16:46.152Z,25.08
2023-04-28T22:19:48.676Z,23.10
2023-04-28T22:22:51.470Z,24.20
2023-04-28T22:25:53.810Z,25.57
2023-04-28T22:28:56.442Z,25.08
2023-04-28T22:31:58.828Z,24.63
2023-04-28T22:35:01.608Z,30.20
2023-04-28T22:38:03.904Z,27.20
2023-04-28T22:41:06.585Z,29.80
2023-04-28T22:44:08.962Z,25.42
2023-04-28T22:47:11.864Z,23.55
2023-04-28T22:50:14.188Z,27.83
2023-04-28T22:53:16.732Z,27.17
2023-04-28T22:56:19.012Z,26.80
2023-04-28T22:59:22.234Z,29.20
2023-04-28T23:02:25.041Z,26.85
2023-04-28T23:05:27.921Z,27.85
2023-04-28T23:08:30.376Z,26.67
2023-04-28T23:11:33.125Z,24.60
2023-04-28T23:14:35.444Z,30.85
2023-04-28T23:17:38.618Z,27.48
2023-04-28T23:20:41.027Z,26.80
2023-04-28T23:23:43.644Z,29.02
2023-04-28T23:26:46.007Z,25.60
2023-04-28T23:29:48.814Z,26.33
2023-04-28T23:32:51.488Z,28.23
2023-04-28T23:35:54.152Z,24.05
2023-04-28T23:38:56.565Z,24.77
2023-04-28T23:41:59.515Z,27.63
2023-04-28T23:45:01.895Z,26.75
2023-04-28T23:48:04.719Z,25.35
2023-04-28T23:51:07.030Z,23.48
2023-04-28T23:54:09.835Z,22.52
2023-04-28T23:57:12.323Z,22.00
